createdAt,value
2023-02-02T00:01:32.213Z,2.03
2023-02-02T00:04:36.473Z,1.45
2023-02-02T00:07:39.152Z,0.60
2023-02-02T00:10:42.015Z,0.85
2023-02-02T00:13:44.893Z,1.08
2023-02-02T00:16:52.008Z,1.57
2023-02-02T00:19:54.689Z,1.10
2023-02-02T00:22:57.631Z,0.30
2023-02-02T00:26:00.655Z,0.73
2023-02-02T00:29:04.276Z,0.50
2023-02-02T00:32:07.422Z,1.10
2023-02-02T00:35:10.183Z,0.73
2023-02-02T00:38:12.979Z,1.02
2023-02-02T00:41:16.501Z,0.80
2023-02-02T00:44:37.830Z,0.77
2023-02-02T00:47:40.429Z,0.60
2023-02-02T00:50:43.229Z,0.70
2023-02-02T00:53:45.870Z,0.60
2023-02-02T00:56:48.481Z,0.57
2023-02-02T00:59:50.928Z,0.22
2023-02-02T01:02:54.905Z,0.50
2023-02-02T01:05:57.490Z,0.57
2023-02-02T01:09:01.443Z,0.65
2023-02-02T01:12:05.012Z,0.40
2023-02-02T01:15:08.779Z,0.85
2023-02-02T01:18:11.373Z,0.30
2023-02-02T01:21:14.233Z,0.30
2023-02-02T01:24:17.015Z,0.10
2023-02-02T01:27:19.845Z,0.60
2023-02-02T01:30:22.643Z,0.60
2023-02-02T01:33:26.112Z,0.90
2023-02-02T01:36:29.075Z,1.35
2023-02-02T01:39:33.596Z,1.15
2023-02-02T01:42:37.128Z,1.58
2023-02-02T01:45:39.947Z,0.65
2023-02-02T01:48:49.221Z,0.90
2023-02-02T01:51:55.424Z,1.30
2023-02-02T01:55:04.430Z,1.05
2023-02-02T01:58:18.220Z,0.80
2023-02-02T02:01:21.006Z,1.10
2023-02-02T02:04:25.753Z,0.85
2023-02-02T02:07:28.515Z,1.80
2023-02-02T02:10:31.386Z,1.85
2023-02-02T02:13:57.176Z,1.30
2023-02-02T02:17:29.270Z,1.75
2023-02-02T02:21:31.429Z,2.20
2023-02-02T02:25:46.954Z,1.83
2023-02-02T02:29:28.237Z,2.13
2023-02-02T02:32:37.891Z,1.43
2023-02-02T02:35:50.574Z,1.77
2023-02-02T02:39:11.275Z,0.90
2023-02-02T02:42:19.420Z,1.63
2023-02-02T02:45:24.574Z,0.85
2023-02-02T02:48:29.268Z,1.15
2023-02-02T02:51:53.183Z,0.98
2023-02-02T02:55:02.912Z,0.60
2023-02-02T02:58:13.946Z,0.80
2023-02-02T03:01:41.213Z,1.17
2023-02-02T03:04:50.628Z,1.10
2023-02-02T03:08:11.070Z,0.98
2023-02-02T03:11:15.959Z,0.82
2023-02-02T03:14:18.634Z,1.10
2023-02-02T03:17:21.544Z,0.85
2023-02-02T03:20:23.944Z,0.88
2023-02-02T03:23:27.163Z,0.03
2023-02-02T03:26:29.852Z,0.40
2023-02-02T03:29:32.886Z,0.60
2023-02-02T03:32:36.335Z,0.38
2023-02-02T03:35:38.987Z,0.70
2023-02-02T03:38:41.720Z,0.60
2023-02-02T03:41:44.449Z,0.50
2023-02-02T03:44:47.253Z,0.50
2023-02-02T03:47:50.243Z,0.38
2023-02-02T03:50:53.198Z,0.52
2023-02-02T03:53:55.972Z,0.70
2023-02-02T03:56:58.551Z,0.30
2023-02-02T04:00:01.590Z,1.40
2023-02-02T04:03:04.166Z,0.47
2023-02-02T04:06:07.474Z,0.43
2023-02-02T04:09:10.051Z,0.50
2023-02-02T04:12:12.824Z,0.30
2023-02-02T04:15:15.217Z,0.60
2023-02-02T04:18:18.144Z,0.50
2023-02-02T04:21:20.525Z,0.47
2023-02-02T04:24:23.311Z,0.28
2023-02-02T04:27:25.735Z,0.10
2023-02-02T04:30:28.918Z,0.35
2023-02-02T04:33:31.795Z,0.32
2023-02-02T04:36:34.706Z,0.40
2023-02-02T04:39:37.501Z,0.30
2023-02-02T04:42:40.242Z,0.57
2023-02-02T04:45:43.134Z,0.82
2023-02-02T04:48:49.241Z,0.17
2023-02-02T04:51:51.837Z,0.25
2023-02-02T04:54:54.795Z,0.32
2023-02-02T04:57:57.388Z,0.10
2023-02-02T05:01:00.242Z,0.20
2023-02-02T05:04:02.903Z,0.40
2023-02-02T05:07:05.452Z,0.27
2023-02-02T05:10:09.008Z,0.10
2023-02-02T05:13:11.635Z,0.50
2023-02-02T05:16:14.460Z,0.35
2023-02-02T05:19:17.474Z,0.80
2023-02-02T05:22:19.937Z,1.08
2023-02-02T05:25:22.842Z,0.32
2023-02-02T05:28:25.461Z,0.33
2023-02-02T05:31:29.087Z,0.25
2023-02-02T05:34:31.706Z,0.47
2023-02-02T05:37:34.329Z,0.50
2023-02-02T05:40:37.057Z,0.77
2023-02-02T05:43:39.810Z,0.60
2023-02-02T05:46:42.636Z,0.80
2023-02-02T05:49:45.348Z,0.60
2023-02-02T05:52:49.022Z,0.75
2023-02-02T05:55:51.812Z,0.40
2023-02-02T05:58:56.132Z,0.20
2023-02-02T06:01:58.930Z,0.50
2023-02-02T06:05:01.488Z,0.40
2023-02-02T06:08:03.930Z,0.60
2023-02-02T06:11:17.765Z,0.70
2023-02-02T06:14:20.869Z,0.82
2023-02-02T06:17:23.315Z,0.90
2023-02-02T06:20:25.828Z,0.45
2023-02-02T06:23:28.538Z,0.50
2023-02-02T06:26:31.141Z,0.60
2023-02-02T06:29:33.761Z,0.50
2023-02-02T06:32:36.344Z,0.82
2023-02-02T06:35:38.989Z,1.02
2023-02-02T06:38:41.652Z,0.80
2023-02-02T06:41:46.692Z,0.30
2023-02-02T06:44:49.260Z,0.30
2023-02-02T06:47:52.527Z,0.17
2023-02-02T06:50:58.116Z,0.50
2023-02-02T06:54:05.324Z,0.68
2023-02-02T06:57:09.397Z,0.90
2023-02-02T07:00:13.484Z,0.57
2023-02-02T07:03:16.957Z,0.32
2023-02-02T07:06:22.565Z,0.40
2023-02-02T07:09:25.068Z,0.13
2023-02-02T07:12:28.786Z,0.30
2023-02-02T07:15:31.296Z,0.30
2023-02-02T07:18:33.868Z,1.05
2023-02-02T07:21:36.683Z,1.40
2023-02-02T07:24:39.344Z,0.50
2023-02-02T07:27:41.861Z,0.75
2023-02-02T07:30:44.625Z,1.33
2023-02-02T07:33:47.909Z,0.70
2023-02-02T07:36:50.589Z,0.68
2023-02-02T07:39:53.073Z,0.40
2023-02-02T07:42:55.889Z,0.35
2023-02-02T07:46:02.940Z,0.63
2023-02-02T07:49:06.269Z,0.60
2023-02-02T07:52:08.883Z,1.15
2023-02-02T07:55:14.675Z,1.58
2023-02-02T07:58:29.024Z,1.70
2023-02-02T08:01:31.729Z,1.63
2023-02-02T08:04:34.436Z,1.75
2023-02-02T08:07:37.110Z,4.57
2023-02-02T08:10:39.742Z,1.27
2023-02-02T08:13:43.849Z,1.00
2023-02-02T08:16:46.281Z,7.43
2023-02-02T08:19:49.496Z,1.33
2023-02-02T08:22:52.022Z,1.00
2023-02-02T08:25:55.934Z,2.60
2023-02-02T08:29:01.406Z,1.90
2023-02-02T08:32:04.986Z,2.70
2023-02-02T08:35:07.725Z,2.75
2023-02-02T08:38:10.839Z,2.30
2023-02-02T08:41:15.794Z,2.10
2023-02-02T08:44:18.583Z,1.55
2023-02-02T08:47:22.058Z,1.42
2023-02-02T08:50:25.179Z,1.38
2023-02-02T08:53:28.242Z,1.60
2023-02-02T08:56:31.025Z,0.68
2023-02-02T08:59:33.497Z,1.00
2023-02-02T09:02:36.558Z,0.93
2023-02-02T09:05:39.189Z,1.08
2023-02-02T09:08:42.540Z,1.70
2023-02-02T09:11:45.714Z,1.00
2023-02-02T09:14:48.417Z,1.17
2023-02-02T09:17:51.057Z,1.50
2023-02-02T09:20:53.616Z,2.05
2023-02-02T09:23:56.650Z,0.90
2023-02-02T09:26:59.201Z,0.55
2023-02-02T09:30:01.849Z,0.82
2023-02-02T09:33:06.073Z,0.70
2023-02-02T09:36:23.234Z,0.63
2023-02-02T09:39:25.835Z,0.90
2023-02-02T09:42:54.357Z,0.57
2023-02-02T09:46:25.947Z,0.68
2023-02-02T09:49:54.317Z,0.93
2023-02-02T09:53:11.025Z,0.80
2023-02-02T09:56:26.687Z,0.50
2023-02-02T09:59:40.196Z,0.60
2023-02-02T10:02:45.990Z,0.68
2023-02-02T10:05:58.437Z,0.50
2023-02-02T10:09:30.873Z,0.70
2023-02-02T10:12:43.898Z,0.90
2023-02-02T10:16:01.567Z,0.60
2023-02-02T10:19:09.731Z,0.80
2023-02-02T10:22:21.498Z,0.68
2023-02-02T10:25:27.800Z,0.60
2023-02-02T10:28:59.383Z,1.20
2023-02-02T10:32:47.468Z,0.60
2023-02-02T10:36:19.588Z,3.72
2023-02-02T10:39:22.105Z,2.07
2023-02-02T10:42:33.162Z,1.88
2023-02-02T10:45:37.980Z,0.93
2023-02-02T10:48:43.512Z,1.00
2023-02-02T10:51:58.335Z,4.65
2023-02-02T10:55:31.265Z,1.67
2023-02-02T10:58:46.926Z,3.33
2023-02-02T11:01:49.927Z,2.15
2023-02-02T11:05:11.440Z,2.70
2023-02-02T11:08:18.694Z,1.48
2023-02-02T11:11:29.396Z,4.10
2023-02-02T11:14:45.491Z,1.88
2023-02-02T11:17:48.668Z,4.10
2023-02-02T11:20:51.182Z,2.17
2023-02-02T11:23:56.313Z,1.52
2023-02-02T11:27:03.312Z,1.40
2023-02-02T11:30:26.589Z,2.38
2023-02-02T11:33:35.188Z,3.00
2023-02-02T11:36:37.813Z,1.45
2023-02-02T11:39:41.689Z,1.15
2023-02-02T11:42:47.785Z,0.60
2023-02-02T11:45:57.554Z,0.77
2023-02-02T11:49:10.278Z,0.70
2023-02-02T11:52:20.512Z,1.10
2023-02-02T11:55:31.991Z,0.85
2023-02-02T11:58:48.007Z,0.80
2023-02-02T12:01:50.705Z,0.43
2023-02-02T12:05:15.038Z,3.58
2023-02-02T12:08:17.966Z,0.82
2023-02-02T12:11:43.318Z,2.83
2023-02-02T12:14:48.726Z,0.27
2023-02-02T12:18:02.846Z,1.58
2023-02-02T12:21:07.474Z,3.10
2023-02-02T12:24:36.639Z,0.87
2023-02-02T12:28:11.494Z,1.58
2023-02-02T12:31:27.006Z,0.90
2023-02-02T12:34:48.098Z,0.70
2023-02-02T12:37:59.799Z,2.28
2023-02-02T12:41:05.522Z,1.20
2023-02-02T12:44:22.741Z,1.25
2023-02-02T12:47:44.173Z,1.07
2023-02-02T12:51:10.541Z,1.15
2023-02-02T12:54:34.329Z,1.70
2023-02-02T12:58:21.143Z,1.10
2023-02-02T13:01:56.222Z,1.65
2023-02-02T13:05:34.239Z,1.08
2023-02-02T13:09:03.787Z,0.98
2023-02-02T13:12:12.755Z,1.13
2023-02-02T13:15:22.873Z,1.00
2023-02-02T13:18:31.885Z,0.93
2023-02-02T13:21:36.740Z,0.97
2023-02-02T13:24:42.615Z,2.47
2023-02-02T13:27:46.944Z,2.55
2023-02-02T13:30:50.935Z,1.33
2023-02-02T13:34:06.474Z,1.13
2023-02-02T13:37:37.151Z,0.80
2023-02-02T13:40:44.312Z,0.98
2023-02-02T13:43:58.878Z,0.90
2023-02-02T13:47:11.091Z,1.60
2023-02-02T13:50:20.236Z,0.93
2023-02-02T13:53:39.775Z,1.40
2023-02-02T13:57:09.868Z,0.90
2023-02-02T14:00:18.815Z,1.30
2023-02-02T14:03:38.399Z,0.67
2023-02-02T14:10:06.346Z,0.70
2023-02-02T14:13:38.073Z,0.70
2023-02-02T14:16:40.591Z,1.00
2023-02-02T14:19:57.459Z,3.00
2023-02-02T14:22:59.915Z,0.85
2023-02-02T14:26:08.735Z,1.37
2023-02-02T14:29:36.735Z,9.55
2023-02-02T14:32:42.933Z,1.58
2023-02-02T14:35:45.439Z,0.83
2023-02-02T14:39:11.121Z,1.35
2023-02-02T14:42:55.715Z,1.48
2023-02-02T14:46:13.463Z,1.33
2023-02-02T14:49:20.122Z,0.55
2023-02-02T14:52:23.274Z,1.95
2023-02-02T14:55:27.487Z,2.42
2023-02-02T14:58:34.205Z,2.77
2023-02-02T15:01:38.118Z,3.45
2023-02-02T15:04:40.859Z,0.88
2023-02-02T15:07:54.729Z,1.33
2023-02-02T15:11:24.184Z,1.05
2023-02-02T15:14:34.186Z,1.02
2023-02-02T15:17:40.023Z,1.60
2023-02-02T15:20:49.000Z,2.33
2023-02-02T15:23:51.799Z,1.02
2023-02-02T15:26:56.014Z,0.88
2023-02-02T15:30:04.473Z,1.90
2023-02-02T15:33:19.665Z,1.25
2023-02-02T15:36:32.394Z,1.90
2023-02-02T15:39:57.472Z,1.50
2023-02-02T15:43:04.431Z,5.03
2023-02-02T15:46:15.951Z,2.50
2023-02-02T15:49:33.358Z,4.35
2023-02-02T15:52:47.084Z,3.08
2023-02-02T15:55:49.896Z,3.20
2023-02-02T15:58:55.609Z,4.15
2023-02-02T16:02:07.277Z,4.30
2023-02-02T16:05:31.303Z,3.75
2023-02-02T16:08:37.913Z,3.88
2023-02-02T16:11:46.002Z,2.13
2023-02-02T16:14:51.075Z,2.60
2023-02-02T16:18:05.703Z,1.77
2023-02-02T16:21:24.896Z,1.50
2023-02-02T16:24:47.037Z,1.45
2023-02-02T16:27:49.807Z,1.90
2023-02-02T16:30:53.309Z,1.90
2023-02-02T16:33:56.937Z,1.10
2023-02-02T16:37:22.631Z,1.25
2023-02-02T16:40:29.663Z,1.80
2023-02-02T16:43:33.716Z,1.33
2023-02-02T16:46:41.796Z,1.75
2023-02-02T16:49:44.750Z,2.28
2023-02-02T16:52:53.286Z,1.92
2023-02-02T16:55:58.243Z,1.58
2023-02-02T16:59:05.496Z,1.52
2023-02-02T17:02:35.822Z,1.50
2023-02-02T17:05:49.608Z,1.33
2023-02-02T17:08:52.285Z,2.00
2023-02-02T17:12:32.177Z,2.03
2023-02-02T17:15:36.618Z,1.33
2023-02-02T17:18:40.038Z,1.58
2023-02-02T17:21:42.945Z,2.35
2023-02-02T17:24:48.250Z,1.52
2023-02-02T17:27:51.041Z,1.25
2023-02-02T17:31:03.047Z,1.02
2023-02-02T17:34:14.931Z,0.82
2023-02-02T17:37:17.512Z,1.47
2023-02-02T17:40:22.848Z,1.65
2023-02-02T17:43:25.592Z,1.40
2023-02-02T17:46:31.324Z,1.57
2023-02-02T17:49:33.698Z,1.63
2023-02-02T17:52:39.846Z,1.33
2023-02-02T17:55:44.078Z,1.02
2023-02-02T17:58:47.085Z,1.52
2023-02-02T18:01:50.343Z,1.92
2023-02-02T18:04:53.558Z,3.28
2023-02-02T18:07:56.201Z,5.07
2023-02-02T18:10:59.632Z,5.40
2023-02-02T18:14:03.519Z,3.95
2023-02-02T18:17:08.408Z,3.53
2023-02-02T18:20:14.954Z,2.75
2023-02-02T18:23:19.464Z,3.20
2023-02-02T18:26:22.801Z,6.90
2023-02-02T18:29:25.590Z,5.10
2023-02-02T18:32:28.762Z,3.90
2023-02-02T18:35:31.718Z,3.30
2023-02-02T18:38:34.617Z,3.43
2023-02-02T18:41:37.566Z,3.13
2023-02-02T18:44:40.190Z,5.45
2023-02-02T18:47:43.106Z,4.43
2023-02-02T18:50:45.862Z,4.50
2023-02-02T18:53:49.456Z,4.68
2023-02-02T18:56:53.632Z,4.25
2023-02-02T18:59:56.701Z,4.28
2023-02-02T19:02:59.775Z,4.50
2023-02-02T19:06:25.653Z,3.45
2023-02-02T19:09:29.553Z,4.27
2023-02-02T19:12:32.568Z,4.22
2023-02-02T19:15:38.517Z,4.65
2023-02-02T19:18:43.000Z,7.40
2023-02-02T19:21:45.566Z,6.63
2023-02-02T19:24:49.302Z,6.05
2023-02-02T19:27:52.170Z,6.38
2023-02-02T19:31:01.038Z,7.18
2023-02-02T19:34:17.109Z,7.28
2023-02-02T19:37:26.174Z,6.45
2023-02-02T19:40:31.156Z,5.40
2023-02-02T19:43:36.631Z,7.03
2023-02-02T19:46:44.330Z,6.80
2023-02-02T19:49:47.201Z,6.33
2023-02-02T19:52:51.290Z,6.05
2023-02-02T19:55:54.456Z,5.15
2023-02-02T19:58:57.233Z,5.97
2023-02-02T20:02:22.522Z,5.45
2023-02-02T20:05:45.782Z,5.63
2023-02-02T20:08:48.751Z,4.90
2023-02-02T20:11:51.648Z,4.53
2023-02-02T20:14:54.838Z,3.47
2023-02-02T20:18:00.691Z,3.72
2023-02-02T20:21:10.126Z,4.57
2023-02-02T20:24:26.767Z,4.28
2023-02-02T20:27:32.538Z,3.75
2023-02-02T20:30:35.580Z,3.25
2023-02-02T20:33:42.122Z,3.78
2023-02-02T20:36:45.122Z,4.97
2023-02-02T20:39:58.001Z,4.35
2023-02-02T20:43:00.753Z,5.27
2023-02-02T20:46:03.724Z,4.13
2023-02-02T20:49:06.880Z,5.03
2023-02-02T20:52:13.119Z,6.67
2023-02-02T20:55:15.992Z,6.30
2023-02-02T20:58:22.063Z,4.65
2023-02-02T21:01:26.189Z,5.80
2023-02-02T21:04:29.118Z,4.72
2023-02-02T21:07:31.663Z,7.22
2023-02-02T21:10:34.627Z,8.10
2023-02-02T21:13:37.484Z,7.17
2023-02-02T21:16:40.747Z,7.53
2023-02-02T21:19:44.289Z,6.50
2023-02-02T21:22:47.356Z,6.63
2023-02-02T21:25:49.800Z,7.28
2023-02-02T21:28:53.206Z,6.70
2023-02-02T21:31:59.389Z,5.45
2023-02-02T21:35:02.364Z,3.78
2023-02-02T21:38:13.400Z,4.10
2023-02-02T21:41:16.398Z,4.63
2023-02-02T21:44:22.352Z,4.03
2023-02-02T21:47:34.075Z,4.45
2023-02-02T21:50:41.085Z,3.47
2023-02-02T21:53:43.889Z,3.60
2023-02-02T21:56:47.155Z,4.07
2023-02-02T21:59:54.750Z,3.65
2023-02-02T22:02:59.073Z,5.40
2023-02-02T22:06:20.711Z,4.30
2023-02-02T22:09:26.365Z,4.60
2023-02-02T22:12:30.336Z,4.68
2023-02-02T22:15:34.563Z,4.13
2023-02-02T22:18:37.241Z,4.20
2023-02-02T22:21:40.177Z,5.18
2023-02-02T22:24:59.352Z,3.90
2023-02-02T22:28:14.349Z,3.70
2023-02-02T22:31:17.420Z,2.80
2023-02-02T22:34:20.063Z,3.38
2023-02-02T22:37:22.652Z,3.28
2023-02-02T22:40:25.695Z,4.30
2023-02-02T22:43:28.465Z,3.40
2023-02-02T22:46:31.083Z,3.33
2023-02-02T22:49:34.449Z,3.60
2023-02-02T22:52:36.871Z,3.35
2023-02-02T22:55:39.756Z,3.70
2023-02-02T22:58:42.234Z,3.58
2023-02-02T23:01:45.268Z,4.25
2023-02-02T23:04:47.848Z,3.85
2023-02-02T23:07:51.145Z,3.83
2023-02-02T23:10:53.935Z,4.13
2023-02-02T23:13:56.490Z,4.18
2023-02-02T23:16:59.034Z,3.40
2023-02-02T23:20:04.479Z,2.30
2023-02-02T23:23:07.419Z,1.92
2023-02-02T23:26:10.251Z,1.90
2023-02-02T23:29:12.692Z,2.47
2023-02-02T23:32:15.570Z,2.33
2023-02-02T23:35:18.217Z,1.95
2023-02-02T23:38:20.945Z,2.08
2023-02-02T23:41:23.768Z,2.30
2023-02-02T23:44:26.321Z,1.95
2023-02-02T23:47:29.013Z,2.13
2023-02-02T23:50:33.757Z,2.83
2023-02-02T23:53:36.798Z,2.47
2023-02-02T23:56:41.060Z,2.33
2023-02-02T23:59:43.443Z,3.00
